Crittenden, Virginia
Current Conditions -  °F | °C
As of 3:35 PM on Wednesday 26 Nov 2014 (Local Time) from KPVG Reporting Station
Overcast Overcast  
Wind Chill: 38°   Ceiling: 600
Heat Index: 43°   Visibility: 1.5mi
Dew Point: 39°   Wind: 8mph
Humidity: 87%   Direction: 300°WNW
Pressure: 29.88"   Gusts: 16mph
Location:  36.9072°N, 76.491°W
Report Text: KPVG 262035Z AUTO 30007G14KT 260V320 1 1/2SM OVC006 06/04 A2988 RMK AO1 P0002
Loading
Personal Weather Stations






























Interactive Weather Map New forecast layout! Learn more

10-Day Weather Forecast

Advertisements
Track Severe Weather on mobile